Time;durP1;ratioP1;P1;durP2;ratioP2;P2;SDS_P1;SDS_P2;PMS_P1;PMS_P2;Temp;Humidity;BMP_temperature;BMP_pressure;BME280_temperature;BME280_humidity;BME280_pressure;Samples;Min_cycle;Max_cycle;Signal;HPM_P1;HPM_P2
2023/12/03 00:00:57;;;;;;;16.83;10.37;;;-1.70;99.90;;;;;;5086095;28;20297;-65
2023/12/03 00:03:25;;;;;;;19.63;11.93;;;-1.70;99.90;;;;;;5086280;28;20226;-65
2023/12/03 00:05:52;;;;;;;18.13;10.80;;;-1.70;99.90;;;;;;5086601;28;20715;-65
2023/12/03 00:08:23;;;;;;;19.07;11.27;;;-1.70;99.90;;;;;;5086035;28;20273;-65
2023/12/03 00:10:54;;;;;;;16.73;10.67;;;-1.70;99.90;;;;;;5086639;28;20247;-64
2023/12/03 00:13:24;;;;;;;18.93;10.77;;;-1.70;99.90;;;;;;5086395;28;20225;-66
2023/12/03 00:15:50;;;;;;;18.27;10.87;;;-1.80;99.90;;;;;;5086150;28;20209;-65
2023/12/03 00:18:17;;;;;;;18.37;10.67;;;-1.80;99.90;;;;;;5086585;28;20296;-65
2023/12/03 00:20:45;;;;;;;16.37;10.10;;;-1.80;99.90;;;;;;5075866;28;20317;-65
2023/12/03 00:23:11;;;;;;;20.37;11.17;;;-1.80;99.90;;;;;;5065906;28;20358;-65
2023/12/03 00:25:40;;;;;;;18.30;11.37;;;-1.80;99.90;;;;;;5065752;28;20214;-65
2023/12/03 00:28:07;;;;;;;18.37;11.13;;;-1.90;99.90;;;;;;5065822;28;20211;-65
2023/12/03 00:30:34;;;;;;;16.07;9.97;;;-1.90;99.90;;;;;;5065967;28;20203;-65
2023/12/03 00:33:01;;;;;;;17.03;9.70;;;-1.90;99.90;;;;;;5066263;28;20244;-65
2023/12/03 00:35:27;;;;;;;16.23;10.37;;;-1.90;99.90;;;;;;5065506;28;20299;-65
2023/12/03 00:37:54;;;;;;;15.63;10.30;;;-1.90;99.90;;;;;;5065378;28;20217;-65
2023/12/03 00:40:22;;;;;;;16.90;9.60;;;-1.90;99.90;;;;;;5064923;28;20690;-65
2023/12/03 00:42:54;;;;;;;16.30;10.03;;;-1.90;99.90;;;;;;5064911;28;20245;-65
2023/12/03 00:45:22;;;;;;;13.93;9.27;;;-1.90;99.90;;;;;;5065155;28;20656;-65
2023/12/03 00:47:49;;;;;;;12.20;8.00;;;-1.90;99.90;;;;;;5069451;28;20214;-65
2023/12/03 00:50:17;;;;;;;14.70;8.87;;;-1.90;99.90;;;;;;5085120;28;20290;-65
2023/12/03 00:52:44;;;;;;;13.83;8.47;;;-1.90;99.90;;;;;;5085065;28;20213;-64
2023/12/03 00:55:11;;;;;;;13.23;7.80;;;-1.90;99.90;;;;;;5085657;28;20209;-65
2023/12/03 00:57:38;;;;;;;10.80;7.60;;;-1.90;99.90;;;;;;5078132;28;20285;-65
2023/12/03 01:00:08;;;;;;;11.90;7.43;;;-1.90;99.90;;;;;;5065297;28;20211;-65
2023/12/03 01:02:36;;;;;;;10.87;7.40;;;-1.90;99.90;;;;;;5065306;28;20234;-64
2023/12/03 01:05:03;;;;;;;11.80;8.00;;;-1.80;99.90;;;;;;5072171;28;20200;-65
2023/12/03 01:07:30;;;;;;;9.57;7.67;;;-1.80;99.90;;;;;;5085074;28;20210;-65
2023/12/03 01:09:57;;;;;;;11.80;7.60;;;-1.80;99.90;;;;;;5085290;28;20217;-65
2023/12/03 01:12:24;;;;;;;11.87;7.10;;;-1.80;99.90;;;;;;5077068;28;20648;-64
2023/12/03 01:14:51;;;;;;;12.47;7.70;;;-1.80;99.90;;;;;;5086928;28;20226;-64
2023/12/03 01:17:19;;;;;;;10.83;7.83;;;-1.80;99.90;;;;;;5087044;28;20335;-64
2023/12/03 01:19:46;;;;;;;11.23;7.70;;;-1.80;99.90;;;;;;5087137;28;20245;-65
2023/12/03 01:22:13;;;;;;;11.57;7.73;;;-1.80;99.90;;;;;;5087261;28;20316;-66
2023/12/03 01:24:40;;;;;;;12.57;7.63;;;-1.80;99.90;;;;;;5086885;28;20263;-65
2023/12/03 01:27:07;;;;;;;9.23;7.20;;;-1.80;99.90;;;;;;5086585;28;20204;-65
2023/12/03 01:29:34;;;;;;;10.17;7.50;;;-1.80;99.90;;;;;;5085431;28;20204;-65
2023/12/03 01:32:00;;;;;;;11.10;7.40;;;-1.80;99.90;;;;;;5087456;28;20336;-65
2023/12/03 01:34:29;;;;;;;9.77;6.93;;;-1.80;99.90;;;;;;5067331;28;20255;-65
2023/12/03 01:36:56;;;;;;;10.97;7.23;;;-1.80;99.90;;;;;;5068089;28;20267;-65
2023/12/03 01:39:22;;;;;;;10.20;6.77;;;-1.80;99.90;;;;;;5087432;28;20228;-65
2023/12/03 01:41:52;;;;;;;10.70;6.77;;;-1.80;99.90;;;;;;5086831;28;20209;-65
2023/12/03 01:44:19;;;;;;;7.77;5.83;;;-1.80;99.90;;;;;;5086921;28;21028;-65
2023/12/03 01:46:48;;;;;;;9.07;6.50;;;-1.80;99.90;;;;;;5086609;28;20724;-65
2023/12/03 01:49:15;;;;;;;10.63;6.27;;;-1.80;99.90;;;;;;5087381;28;20241;-64
2023/12/03 01:51:44;;;;;;;7.90;5.93;;;-1.70;99.90;;;;;;5086862;28;20299;-65
2023/12/03 01:54:11;;;;;;;6.87;5.33;;;-1.80;99.90;;;;;;5086564;28;20205;-65
2023/12/03 01:56:38;;;;;;;8.67;5.70;;;-1.70;99.90;;;;;;5086909;28;20296;-65
2023/12/03 01:59:04;;;;;;;10.00;6.70;;;-1.70;99.90;;;;;;5086913;28;20243;-65
2023/12/03 02:01:31;;;;;;;7.53;6.27;;;-1.70;99.90;;;;;;5087023;28;20764;-65
2023/12/03 02:03:58;;;;;;;7.17;6.37;;;-1.70;99.90;;;;;;5087189;28;20232;-65
2023/12/03 02:06:25;;;;;;;8.53;6.13;;;-1.80;99.90;;;;;;5086909;28;20216;-65
2023/12/03 02:08:54;;;;;;;8.77;6.10;;;-1.80;99.90;;;;;;5075967;28;20230;-65
2023/12/03 02:11:21;;;;;;;8.63;5.83;;;-1.80;99.90;;;;;;5087128;28;20209;-65
2023/12/03 02:13:49;;;;;;;9.00;6.23;;;-1.80;99.90;;;;;;5090636;28;20239;-65
2023/12/03 02:16:16;;;;;;;7.13;5.80;;;-1.80;99.90;;;;;;5090202;28;20233;-64
2023/12/03 02:18:43;;;;;;;8.63;6.77;;;-1.80;99.90;;;;;;5090431;28;20214;-65
2023/12/03 02:21:10;;;;;;;8.70;6.33;;;-1.80;99.90;;;;;;5090533;28;20225;-65
2023/12/03 02:23:38;;;;;;;6.90;6.20;;;-1.80;99.90;;;;;;5090275;28;20323;-65
2023/12/03 02:26:06;;;;;;;8.43;6.40;;;-1.80;99.90;;;;;;5090641;28;20217;-65
2023/12/03 02:28:33;;;;;;;9.73;6.80;;;-1.90;99.90;;;;;;5086655;28;20571;-65
2023/12/03 02:31:00;;;;;;;10.27;6.93;;;-1.90;99.90;;;;;;5090459;28;20241;-65
2023/12/03 02:33:28;;;;;;;8.87;6.50;;;-1.90;99.90;;;;;;5090294;28;20310;-65
2023/12/03 02:35:55;;;;;;;9.53;6.43;;;-1.90;99.90;;;;;;5090038;28;20207;-65
2023/12/03 02:38:22;;;;;;;6.77;5.90;;;-1.90;99.90;;;;;;5089864;28;20599;-66
2023/12/03 02:40:50;;;;;;;10.10;7.00;;;-1.90;99.90;;;;;;5090098;28;20209;-65
2023/12/03 02:43:17;;;;;;;8.67;7.10;;;-1.90;99.90;;;;;;5089004;28;20265;-65
2023/12/03 02:45:44;;;;;;;13.97;7.50;;;-1.90;99.90;;;;;;5089639;28;20866;-65
2023/12/03 02:48:11;;;;;;;11.97;7.50;;;-1.90;99.90;;;;;;5090053;28;20213;-66
2023/12/03 02:50:37;;;;;;;8.30;6.77;;;-1.90;99.90;;;;;;5089922;28;20206;-65
2023/12/03 02:53:04;;;;;;;10.10;6.90;;;-1.80;99.90;;;;;;5089900;28;20292;-65
2023/12/03 02:55:31;;;;;;;11.23;7.70;;;-1.80;99.90;;;;;;5089649;28;20202;-65
2023/12/03 02:57:59;;;;;;;10.17;7.40;;;-1.80;99.90;;;;;;5094960;28;20208;-64
2023/12/03 03:00:26;;;;;;;9.50;6.80;;;-1.80;99.90;;;;;;5100104;28;20189;-64
2023/12/03 03:02:55;;;;;;;9.50;7.17;;;-1.80;99.90;;;;;;5102903;28;20259;-65
2023/12/03 03:05:22;;;;;;;8.80;7.37;;;-1.80;99.90;;;;;;5098209;28;20237;-65
2023/12/03 03:07:49;;;;;;;12.23;6.97;;;-1.70;99.90;;;;;;5109563;28;20237;-65
2023/12/03 03:10:15;;;;;;;10.23;6.23;;;-1.80;99.90;;;;;;5109626;28;20306;-65
2023/12/03 03:12:42;;;;;;;8.50;6.17;;;-1.80;99.90;;;;;;5094518;28;20217;-64
2023/12/03 03:15:11;;;;;;;9.60;6.93;;;-1.70;99.90;;;;;;5088909;28;20211;-65
2023/12/03 03:17:38;;;;;;;9.33;7.23;;;-1.70;99.90;;;;;;5089139;28;20284;-64
2023/12/03 03:20:06;;;;;;;8.17;6.47;;;-1.70;99.90;;;;;;5088212;28;20664;-64
2023/12/03 03:22:33;;;;;;;8.53;6.50;;;-1.70;99.90;;;;;;5088977;28;20327;-64
2023/12/03 03:25:00;;;;;;;9.17;6.73;;;-1.70;99.90;;;;;;5088967;28;20736;-64
2023/12/03 03:27:27;;;;;;;14.03;9.13;;;-1.70;99.90;;;;;;5088882;28;20210;-64
2023/12/03 03:29:54;;;;;;;12.63;7.83;;;-1.70;99.90;;;;;;5089141;28;20609;-65
2023/12/03 03:32:23;;;;;;;10.67;7.00;;;-1.70;99.90;;;;;;5088829;28;20708;-64
2023/12/03 03:34:49;;;;;;;8.53;6.93;;;-1.60;99.90;;;;;;5088591;28;20589;-64
2023/12/03 03:37:16;;;;;;;8.87;7.43;;;-1.70;99.90;;;;;;5088964;28;20325;-64
2023/12/03 03:39:43;;;;;;;8.73;6.70;;;-1.60;99.90;;;;;;5088421;28;20220;-64
2023/12/03 03:42:10;;;;;;;10.37;7.07;;;-1.60;99.90;;;;;;5088359;28;20234;-64
2023/12/03 03:44:37;;;;;;;10.43;7.20;;;-1.60;99.90;;;;;;5088809;28;20293;-64
2023/12/03 03:47:04;;;;;;;8.47;7.03;;;-1.50;99.90;;;;;;5088472;28;20201;-65
2023/12/03 03:49:32;;;;;;;8.20;6.63;;;-1.50;99.90;;;;;;5088494;28;20309;-64
2023/12/03 03:51:59;;;;;;;9.23;6.60;;;-1.50;99.90;;;;;;5088605;28;20921;-64
2023/12/03 03:54:26;;;;;;;10.77;6.83;;;-1.50;99.90;;;;;;5088296;28;20675;-64
2023/12/03 03:56:54;;;;;;;8.53;6.60;;;-1.50;99.90;;;;;;5088351;28;21041;-65
2023/12/03 03:59:21;;;;;;;9.30;6.83;;;-1.50;99.90;;;;;;5088550;28;20217;-64
2023/12/03 04:01:48;;;;;;;8.33;6.70;;;-1.50;99.90;;;;;;5088345;28;20242;-64
2023/12/03 04:04:14;;;;;;;9.43;7.03;;;-1.50;99.90;;;;;;5087856;28;20679;-64
2023/12/03 04:06:45;;;;;;;10.70;6.83;;;-1.50;99.90;;;;;;5088195;28;20289;-64
2023/12/03 04:09:12;;;;;;;8.00;6.80;;;-1.40;99.90;;;;;;5088288;28;20246;-64
2023/12/03 04:11:40;;;;;;;8.97;7.57;;;-1.40;99.90;;;;;;5087972;28;20737;-64
2023/12/03 04:14:08;;;;;;;10.40;7.43;;;-1.40;99.90;;;;;;5088452;28;20241;-64
2023/12/03 04:16:34;;;;;;;11.57;8.07;;;-1.40;99.90;;;;;;5088021;28;20206;-64
2023/12/03 04:19:02;;;;;;;10.17;7.63;;;-1.40;99.90;;;;;;5088370;28;20293;-64
2023/12/03 04:21:29;;;;;;;9.97;7.40;;;-1.40;99.90;;;;;;5088423;28;20207;-64
2023/12/03 04:23:58;;;;;;;9.57;7.47;;;-1.40;99.90;;;;;;5087636;28;20592;-64
2023/12/03 04:26:25;;;;;;;8.80;6.70;;;-1.40;99.90;;;;;;5088032;28;20294;-64
2023/12/03 04:28:53;;;;;;;9.63;7.47;;;-1.40;99.90;;;;;;5071533;28;20290;-65
2023/12/03 04:31:22;;;;;;;9.83;7.57;;;-1.40;99.90;;;;;;5067653;28;20209;-65
2023/12/03 04:33:49;;;;;;;8.93;7.40;;;-1.40;99.90;;;;;;5067815;28;20277;-65
2023/12/03 04:36:16;;;;;;;11.70;7.83;;;-1.40;99.90;;;;;;5068944;28;20235;-66
2023/12/03 04:38:44;;;;;;;8.60;6.97;;;-1.40;99.90;;;;;;5067388;28;20215;-65
2023/12/03 04:41:13;;;;;;;9.53;7.43;;;-1.40;99.90;;;;;;5077269;28;20296;-65
2023/12/03 04:43:40;;;;;;;11.10;8.50;;;-1.40;99.90;;;;;;5087469;28;20327;-65
2023/12/03 04:46:08;;;;;;;13.27;8.13;;;-1.40;99.90;;;;;;5087643;28;20221;-65
2023/12/03 04:48:36;;;;;;;11.07;8.63;;;-1.40;99.90;;;;;;5087809;28;20234;-64
2023/12/03 04:51:03;;;;;;;11.60;8.47;;;-1.40;99.90;;;;;;5087751;28;20214;-64
2023/12/03 04:53:30;;;;;;;11.63;8.17;;;-1.40;99.90;;;;;;5100696;28;20214;-64
2023/12/03 04:55:57;;;;;;;10.33;8.07;;;-1.40;99.90;;;;;;5107781;28;20633;-65
2023/12/03 04:58:26;;;;;;;12.67;9.07;;;-1.40;99.90;;;;;;5093475;28;20221;-65
2023/12/03 05:00:53;;;;;;;12.80;9.50;;;-1.40;99.90;;;;;;5073415;28;20551;-64
2023/12/03 05:03:20;;;;;;;11.90;8.97;;;-1.30;99.90;;;;;;5092002;28;20245;-65
2023/12/03 05:05:47;;;;;;;11.67;9.50;;;-1.30;99.90;;;;;;5094087;28;20765;-65
2023/12/03 05:08:14;;;;;;;11.73;8.93;;;-1.30;99.90;;;;;;5087071;28;20286;-65
2023/12/03 05:10:41;;;;;;;12.40;9.20;;;-1.40;99.90;;;;;;5086848;28;20549;-65
2023/12/03 05:13:09;;;;;;;12.13;9.33;;;-1.30;99.90;;;;;;5081949;28;20196;-65
2023/12/03 05:15:37;;;;;;;12.77;8.67;;;-1.30;99.90;;;;;;5066707;28;20290;-65
2023/12/03 05:18:04;;;;;;;13.57;9.17;;;-1.30;99.90;;;;;;5067071;28;20294;-65
2023/12/03 05:20:32;;;;;;;12.70;9.50;;;-1.30;99.90;;;;;;5066674;28;20749;-65
2023/12/03 05:22:59;;;;;;;15.60;9.97;;;-1.30;99.90;;;;;;5075508;28;20260;-65
2023/12/03 05:25:26;;;;;;;11.77;9.33;;;-1.30;99.90;;;;;;5087057;28;20203;-64
2023/12/03 05:27:53;;;;;;;12.97;9.67;;;-1.30;99.90;;;;;;5086492;28;20305;-65
2023/12/03 05:30:20;;;;;;;12.20;8.87;;;-1.30;99.90;;;;;;5086697;28;20739;-65
2023/12/03 05:32:48;;;;;;;12.90;9.13;;;-1.30;99.90;;;;;;5086199;28;20313;-65
2023/12/03 05:35:15;;;;;;;12.87;9.37;;;-1.30;99.90;;;;;;5086949;28;20218;-64
2023/12/03 05:37:42;;;;;;;13.47;9.03;;;-1.30;99.90;;;;;;5086615;28;20304;-65
2023/12/03 05:40:09;;;;;;;13.63;9.77;;;-1.30;99.90;;;;;;5086837;28;20207;-64
2023/12/03 05:42:36;;;;;;;14.70;10.10;;;-1.40;99.90;;;;;;5086780;28;20575;-63
2023/12/03 05:45:04;;;;;;;12.50;9.07;;;-1.40;99.90;;;;;;5090958;28;20241;-64
2023/12/03 05:47:31;;;;;;;13.13;9.33;;;-1.40;99.90;;;;;;5083383;28;20281;-63
2023/12/03 05:50:01;;;;;;;12.60;9.10;;;-1.40;99.90;;;;;;5070220;28;20206;-63
2023/12/03 05:52:28;;;;;;;14.47;9.63;;;-1.40;99.90;;;;;;5088590;28;20575;-63
2023/12/03 05:54:55;;;;;;;13.83;9.60;;;-1.40;99.90;;;;;;5090540;28;20249;-64
2023/12/03 05:57:22;;;;;;;12.50;9.10;;;-1.40;99.90;;;;;;5090158;28;20750;-63
2023/12/03 05:59:49;;;;;;;11.60;8.37;;;-1.40;99.90;;;;;;5090109;28;20297;-63
2023/12/03 06:02:16;;;;;;;13.80;10.00;;;-1.40;99.90;;;;;;5090373;28;20878;-64
2023/12/03 06:04:43;;;;;;;14.27;9.73;;;-1.40;99.90;;;;;;5089804;28;20665;-63
2023/12/03 06:07:11;;;;;;;13.97;9.83;;;-1.40;99.90;;;;;;5090355;28;20317;-63
2023/12/03 06:09:41;;;;;;;12.73;9.50;;;-1.40;99.90;;;;;;5089689;28;20321;-63
2023/12/03 06:12:10;;;;;;;13.23;9.87;;;-1.40;99.90;;;;;;5089797;28;20653;-63
2023/12/03 06:14:37;;;;;;;12.30;8.83;;;-1.40;99.90;;;;;;5090628;28;20222;-63
2023/12/03 06:17:04;;;;;;;13.20;9.30;;;-1.40;99.90;;;;;;5089892;28;20215;-64
2023/12/03 06:19:31;;;;;;;14.30;9.67;;;-1.40;99.90;;;;;;5090343;28;20686;-63
2023/12/03 06:21:57;;;;;;;12.20;9.23;;;-1.40;99.90;;;;;;5078971;28;20730;-64
2023/12/03 06:24:26;;;;;;;14.40;9.30;;;-1.40;99.90;;;;;;5090049;28;20316;-63
2023/12/03 06:26:53;;;;;;;12.40;8.90;;;-1.40;99.90;;;;;;5089519;28;20557;-64
2023/12/03 06:29:20;;;;;;;12.33;9.60;;;-1.40;99.90;;;;;;5069842;28;20217;-64
2023/12/03 06:31:48;;;;;;;13.33;9.63;;;-1.40;99.90;;;;;;5069661;28;20223;-63
2023/12/03 06:34:15;;;;;;;12.80;9.17;;;-1.40;99.90;;;;;;5069983;28;20237;-64
2023/12/03 06:36:42;;;;;;;12.97;9.40;;;-1.40;99.90;;;;;;5088609;28;20782;-64
2023/12/03 06:39:09;;;;;;;13.67;9.43;;;-1.50;99.90;;;;;;5089699;28;20297;-64
2023/12/03 06:41:37;;;;;;;12.33;8.93;;;-1.50;99.90;;;;;;5083436;28;20514;-64
2023/12/03 06:44:04;;;;;;;14.27;9.93;;;-1.50;99.90;;;;;;5069450;28;20659;-67
2023/12/03 06:46:31;;;;;;;13.20;9.80;;;-1.50;99.90;;;;;;5071273;28;20286;-64
2023/12/03 06:48:58;;;;;;;16.13;10.77;;;-1.50;99.90;;;;;;5085057;28;20208;-63
2023/12/03 06:51:25;;;;;;;15.37;10.23;;;-1.50;99.90;;;;;;5069321;28;20772;-64
2023/12/03 06:53:52;;;;;;;15.50;9.83;;;-1.50;99.90;;;;;;5085334;28;20943;-64
2023/12/03 06:56:18;;;;;;;13.10;9.40;;;-1.60;99.90;;;;;;5088802;28;20217;-63
2023/12/03 06:58:47;;;;;;;12.43;9.80;;;-1.60;99.90;;;;;;5089382;28;20297;-63
2023/12/03 07:01:14;;;;;;;13.27;9.93;;;-1.60;99.90;;;;;;5095643;28;20282;-63
2023/12/03 07:03:41;;;;;;;13.60;10.13;;;-1.60;99.90;;;;;;5100538;28;20231;-63
2023/12/03 07:06:08;;;;;;;13.90;10.17;;;-1.50;99.90;;;;;;5099766;28;20221;-63
2023/12/03 07:08:35;;;;;;;13.17;9.37;;;-1.40;99.90;;;;;;5100628;28;20273;-63
2023/12/03 07:11:02;;;;;;;15.80;11.00;;;-1.30;99.90;;;;;;5095116;28;20289;-63
2023/12/03 07:13:29;;;;;;;13.53;10.67;;;-1.20;99.90;;;;;;5099226;28;20215;-63
2023/12/03 07:15:58;;;;;;;13.30;10.30;;;-1.20;99.90;;;;;;5104040;28;20293;-64
2023/12/03 07:18:24;;;;;;;15.43;10.77;;;-1.10;99.90;;;;;;5109672;28;20211;-63
2023/12/03 07:20:51;;;;;;;14.80;9.63;;;-1.20;99.90;;;;;;5109521;28;20418;-63
2023/12/03 07:23:18;;;;;;;12.60;9.77;;;-1.30;99.90;;;;;;5097549;28;21117;-64
2023/12/03 07:25:45;;;;;;;13.67;10.03;;;-1.50;99.90;;;;;;5089109;28;20206;-63
2023/12/03 07:28:12;;;;;;;10.93;8.67;;;-1.50;99.90;;;;;;5088726;28;20229;-63
2023/12/03 07:30:39;;;;;;;12.30;8.60;;;-1.60;99.90;;;;;;5089205;28;20303;-63
2023/12/03 07:33:07;;;;;;;11.73;8.00;;;-1.70;99.90;;;;;;5089161;28;20320;-64
2023/12/03 07:35:34;;;;;;;10.37;7.80;;;-1.80;99.90;;;;;;5088921;28;20217;-64
2023/12/03 07:38:01;;;;;;;11.50;8.77;;;-1.80;99.90;;;;;;5088849;28;20209;-63
2023/12/03 07:40:28;;;;;;;10.40;8.07;;;-1.90;99.90;;;;;;5088529;28;20237;-63
2023/12/03 07:42:55;;;;;;;12.10;8.73;;;-1.90;99.90;;;;;;5088272;28;20202;-64
2023/12/03 07:45:22;;;;;;;12.20;8.60;;;-1.90;99.90;;;;;;5088511;28;20325;-63
2023/12/03 07:47:48;;;;;;;12.70;9.40;;;-1.80;99.90;;;;;;5088528;28;20241;-63
2023/12/03 07:50:17;;;;;;;11.13;8.70;;;-1.80;99.90;;;;;;5077979;28;20217;-64
2023/12/03 07:52:43;;;;;;;10.53;8.33;;;-1.80;99.90;;;;;;5085853;28;20301;-63
2023/12/03 07:55:10;;;;;;;10.17;7.50;;;-1.90;99.90;;;;;;5088346;28;20209;-64
2023/12/03 07:57:37;;;;;;;11.20;8.00;;;-1.90;99.90;;;;;;5087505;28;20201;-64
2023/12/03 08:00:06;;;;;;;8.67;7.13;;;-2.00;99.90;;;;;;5081409;28;20288;-64
2023/12/03 08:02:33;;;;;;;8.87;7.10;;;-2.00;99.90;;;;;;5068141;28;20218;-64
2023/12/03 08:05:00;;;;;;;8.83;7.07;;;-2.00;99.90;;;;;;5067634;28;20234;-64
2023/12/03 08:07:28;;;;;;;10.27;7.17;;;-2.10;99.90;;;;;;5067790;28;20293;-64
2023/12/03 08:09:58;;;;;;;9.13;7.17;;;-2.10;99.90;;;;;;5067725;28;20294;-64
2023/12/03 08:12:25;;;;;;;8.80;7.17;;;-2.10;99.90;;;;;;5067659;28;20322;-64
2023/12/03 08:14:51;;;;;;;12.30;9.53;;;-2.10;99.90;;;;;;5067800;28;20295;-64
2023/12/03 08:17:18;;;;;;;11.33;9.73;;;-2.00;99.90;;;;;;5075601;28;20716;-64
2023/12/03 08:19:45;;;;;;;10.07;7.57;;;-2.00;99.90;;;;;;5087655;28;20215;-64
2023/12/03 08:22:12;;;;;;;11.30;8.53;;;-2.00;99.90;;;;;;5087899;28;20696;-64
2023/12/03 08:24:40;;;;;;;10.87;7.87;;;-2.00;99.90;;;;;;5087775;28;20226;-64
2023/12/03 08:27:08;;;;;;;10.23;8.00;;;-1.90;99.90;;;;;;5087597;28;20213;-64
2023/12/03 08:29:34;;;;;;;10.23;8.63;;;-2.00;99.90;;;;;;5087441;28;20233;-64
2023/12/03 08:32:01;;;;;;;11.13;8.70;;;-1.90;99.90;;;;;;5086116;28;20233;-64
2023/12/03 08:34:28;;;;;;;13.57;8.20;;;-1.90;99.90;;;;;;5081994;28;20306;-66
2023/12/03 08:36:56;;;;;;;11.37;8.63;;;-1.80;99.90;;;;;;5087537;28;20221;-65
2023/12/03 08:39:23;;;;;;;10.40;8.30;;;-1.90;99.90;;;;;;5087499;28;20660;-64
2023/12/03 08:41:51;;;;;;;10.80;8.17;;;-1.90;99.90;;;;;;5087441;28;20283;-64
2023/12/03 08:44:18;;;;;;;9.57;7.30;;;-1.80;99.90;;;;;;5087564;28;20221;-64
2023/12/03 08:46:44;;;;;;;9.83;7.77;;;-1.80;99.90;;;;;;5079912;28;20207;-64
2023/12/03 08:49:12;;;;;;;9.03;7.63;;;-1.80;99.90;;;;;;5086875;28;20297;-64
2023/12/03 08:51:39;;;;;;;8.90;7.47;;;-1.80;99.90;;;;;;5087351;28;20570;-64
2023/12/03 08:54:06;;;;;;;10.77;7.63;;;-1.80;99.90;;;;;;5087435;28;20221;-65
2023/12/03 08:56:33;;;;;;;10.17;8.03;;;-1.70;99.90;;;;;;5087039;28;20293;-65
2023/12/03 08:59:01;;;;;;;10.17;7.70;;;-1.70;99.90;;;;;;5087247;28;20286;-64
2023/12/03 09:01:28;;;;;;;8.73;7.60;;;-1.70;99.90;;;;;;5087360;28;20281;-64
2023/12/03 09:03:55;;;;;;;10.10;7.97;;;-1.70;99.90;;;;;;5087080;28;20290;-64
2023/12/03 09:06:22;;;;;;;8.97;7.50;;;-1.70;99.90;;;;;;5087130;28;20293;-64
2023/12/03 09:08:49;;;;;;;10.20;6.93;;;-1.70;99.90;;;;;;5086843;28;20340;-64
2023/12/03 09:11:15;;;;;;;8.43;7.20;;;-1.80;99.90;;;;;;5087058;28;20211;-65
2023/12/03 09:13:42;;;;;;;10.23;7.33;;;-1.80;99.90;;;;;;5086485;28;20289;-64
2023/12/03 09:16:11;;;;;;;8.00;6.93;;;-1.80;99.90;;;;;;5087412;28;20324;-64
2023/12/03 09:18:39;;;;;;;8.33;7.13;;;-1.80;99.90;;;;;;5086324;28;20292;-64
2023/12/03 09:21:07;;;;;;;9.03;7.60;;;-1.80;99.90;;;;;;5085209;28;20202;-65
2023/12/03 09:23:35;;;;;;;8.37;7.00;;;-1.80;99.90;;;;;;5086759;28;20287;-65
2023/12/03 09:26:02;;;;;;;9.70;7.37;;;-1.80;99.90;;;;;;5086899;28;20258;-65
2023/12/03 09:28:30;;;;;;;8.90;7.13;;;-1.80;99.90;;;;;;5086928;28;20213;-65
2023/12/03 09:30:57;;;;;;;12.57;8.27;;;-1.80;99.90;;;;;;5086835;28;20234;-65
2023/12/03 09:33:27;;;;;;;11.47;8.10;;;-1.80;99.90;;;;;;5086834;28;20966;-64
2023/12/03 09:35:55;;;;;;;9.30;6.87;;;-1.80;99.90;;;;;;5086684;28;20296;-65
2023/12/03 09:38:22;;;;;;;8.70;6.83;;;-1.80;99.90;;;;;;5080186;28;20206;-65
2023/12/03 09:40:50;;;;;;;7.67;6.53;;;-1.80;99.90;;;;;;5066645;28;20205;-65
2023/12/03 09:43:19;;;;;;;9.20;6.80;;;-1.80;99.90;;;;;;5067823;28;20305;-64
2023/12/03 09:45:47;;;;;;;8.90;7.07;;;-1.80;99.90;;;;;;5086258;28;20260;-65
2023/12/03 09:48:14;;;;;;;9.27;7.23;;;-1.70;99.90;;;;;;5086997;28;20218;-65
2023/12/03 09:50:45;;;;;;;12.23;7.93;;;-1.70;99.90;;;;;;5086433;28;20664;-65
2023/12/03 09:53:14;;;;;;;10.70;7.13;;;-1.70;99.90;;;;;;5086716;28;20292;-65
2023/12/03 09:55:42;;;;;;;7.50;6.57;;;-1.60;99.90;;;;;;5086542;28;20203;-65
2023/12/03 09:58:10;;;;;;;7.03;6.10;;;-1.70;99.90;;;;;;5086370;28;20230;-64
2023/12/03 10:00:39;;;;;;;7.73;6.87;;;-1.70;99.90;;;;;;5086625;28;20214;-64
2023/12/03 10:03:06;;;;;;;7.90;6.37;;;-1.70;99.90;;;;;;5086863;28;20209;-64
2023/12/03 10:05:33;;;;;;;9.83;7.20;;;-1.70;99.90;;;;;;5086381;28;20256;-64
2023/12/03 10:08:03;;;;;;;13.43;9.23;;;-1.70;99.90;;;;;;5086614;28;20320;-65
2023/12/03 10:10:32;;;;;;;8.43;6.70;;;-1.70;99.90;;;;;;5086598;28;20274;-65
2023/12/03 10:13:00;;;;;;;9.40;7.50;;;-1.70;99.90;;;;;;5085728;28;20576;-65
2023/12/03 10:15:27;;;;;;;8.13;6.03;;;-1.70;99.90;;;;;;5086354;28;20297;-65
2023/12/03 10:17:54;;;;;;;7.77;6.30;;;-1.60;99.90;;;;;;5086415;28;20217;-65
2023/12/03 10:20:24;;;;;;;7.80;7.00;;;-1.60;99.90;;;;;;5086142;28;20207;-64
2023/12/03 10:22:54;;;;;;;7.40;6.70;;;-1.60;99.90;;;;;;5086367;28;20611;-64
2023/12/03 10:25:30;;;;;;;8.23;6.83;;;-1.60;99.90;;;;;;5084588;28;20717;-64
2023/12/03 10:27:57;;;;;;;7.90;6.63;;;-1.60;99.90;;;;;;5083572;28;20244;-64
2023/12/03 10:30:25;;;;;;;9.00;6.63;;;-1.60;99.90;;;;;;5087320;28;20245;-64
2023/12/03 10:32:52;;;;;;;9.23;6.37;;;-1.60;99.90;;;;;;5087417;28;20329;-65
2023/12/03 10:35:21;;;;;;;7.63;5.80;;;-1.60;99.90;;;;;;5076261;28;20297;-64
2023/12/03 10:37:48;;;;;;;5.63;5.07;;;-1.60;99.90;;;;;;5074781;28;20210;-64
2023/12/03 10:40:15;;;;;;;6.67;5.77;;;-1.60;99.90;;;;;;5088296;28;20306;-64
2023/12/03 10:42:44;;;;;;;6.10;5.50;;;-1.60;99.90;;;;;;5088072;28;20220;-64
2023/12/03 10:45:13;;;;;;;7.03;4.97;;;-1.60;99.90;;;;;;5068075;28;20316;-64
2023/12/03 10:47:40;;;;;;;6.60;5.77;;;-1.70;99.90;;;;;;5067461;28;20215;-64
2023/12/03 10:50:09;;;;;;;7.17;5.70;;;-1.70;99.90;;;;;;5067406;28;20305;-64
2023/12/03 10:52:37;;;;;;;7.07;6.30;;;-1.60;99.90;;;;;;5078691;28;20308;-64
2023/12/03 10:55:06;;;;;;;6.10;5.50;;;-1.60;99.90;;;;;;5108270;28;20217;-64
2023/12/03 10:57:35;;;;;;;5.73;5.10;;;-1.60;99.90;;;;;;5107809;28;20214;-64
2023/12/03 11:00:09;;;;;;;7.17;5.67;;;-1.60;99.90;;;;;;5088161;28;20228;-64
2023/12/03 11:02:40;;;;;;;6.03;5.33;;;-1.60;99.90;;;;;;5067033;28;20195;-64
2023/12/03 11:05:11;;;;;;;7.97;6.07;;;-1.60;99.90;;;;;;5074675;28;20214;-65
2023/12/03 11:07:39;;;;;;;7.17;5.90;;;-1.60;99.90;;;;;;5088623;28;20386;-65
2023/12/03 11:10:09;;;;;;;8.00;5.83;;;-1.60;99.90;;;;;;5092488;28;20750;-64
2023/12/03 11:12:37;;;;;;;7.20;6.10;;;-1.60;99.90;;;;;;5086862;28;20219;-64
2023/12/03 11:15:08;;;;;;;7.80;5.83;;;-1.50;99.90;;;;;;5085891;28;20234;-64
2023/12/03 11:17:40;;;;;;;6.37;5.70;;;-1.50;99.90;;;;;;5082856;28;20245;-64
2023/12/03 11:20:11;;;;;;;6.17;5.57;;;-1.50;99.90;;;;;;5087830;28;20278;-64
2023/12/03 11:22:52;;;;;;;7.37;6.40;;;-1.40;99.90;;;;;;5077951;28;20298;-65
2023/12/03 11:25:25;;;;;;;7.00;6.30;;;-1.30;99.90;;;;;;5087399;28;20235;-64
2023/12/03 11:27:53;;;;;;;7.23;5.83;;;-1.30;99.90;;;;;;5087463;28;20294;-63
2023/12/03 11:30:37;;;;;;;7.70;6.70;;;-1.30;99.90;;;;;;5087485;28;20205;-64
2023/12/03 11:33:07;;;;;;;6.80;6.07;;;-1.30;99.90;;;;;;5082086;28;20195;-65
2023/12/03 11:35:35;;;;;;;5.93;5.43;;;-1.20;99.90;;;;;;5066830;28;20192;-65
2023/12/03 11:38:04;;;;;;;7.87;5.27;;;-1.30;99.90;;;;;;5086658;28;20210;-67
2023/12/03 11:40:35;;;;;;;6.03;5.43;;;-1.40;99.90;;;;;;5086027;28;20233;-64
2023/12/03 11:43:05;;;;;;;6.70;6.03;;;-1.30;99.90;;;;;;5086381;28;20751;-65
2023/12/03 11:45:43;;;;;;;6.60;5.97;;;-1.30;99.90;;;;;;5086456;28;20691;-68
2023/12/03 11:48:11;;;;;;;6.23;5.63;;;-1.30;99.90;;;;;;5079841;28;20660;-65
2023/12/03 11:50:39;;;;;;;6.43;5.83;;;-1.30;99.90;;;;;;5086466;28;20289;-65
2023/12/03 11:53:09;;;;;;;6.93;5.63;;;-1.30;99.90;;;;;;5086803;28;20674;-64
2023/12/03 11:55:37;;;;;;;6.60;5.77;;;-1.30;99.90;;;;;;5086442;28;20948;-65
2023/12/03 11:58:04;;;;;;;7.03;6.23;;;-1.30;99.90;;;;;;5086997;28;20210;-64
2023/12/03 12:00:32;;;;;;;6.77;5.97;;;-1.20;99.90;;;;;;5087380;28;20221;-64
2023/12/03 12:03:02;;;;;;;7.50;6.20;;;-1.20;99.90;;;;;;5087480;28;20747;-64
2023/12/03 12:05:29;;;;;;;8.10;6.80;;;-1.20;99.90;;;;;;5086761;28;20246;-64
2023/12/03 12:08:01;;;;;;;6.40;5.40;;;-1.10;99.90;;;;;;5086554;28;20234;-64
2023/12/03 12:10:28;;;;;;;7.30;6.27;;;-1.30;99.90;;;;;;5086859;28;20605;-64
2023/12/03 12:12:57;;;;;;;7.13;6.43;;;-1.30;99.90;;;;;;5086257;28;20299;-64
2023/12/03 12:15:24;;;;;;;6.83;6.13;;;-1.30;99.90;;;;;;5086845;28;20206;-64
2023/12/03 12:17:51;;;;;;;6.60;5.97;;;-1.30;99.90;;;;;;5086689;28;20287;-64
2023/12/03 12:20:27;;;;;;;6.27;5.70;;;-1.30;99.90;;;;;;5086588;28;20214;-64
2023/12/03 12:22:55;;;;;;;5.87;5.07;;;-1.40;99.90;;;;;;5085921;28;20376;-64
2023/12/03 12:25:22;;;;;;;6.03;5.43;;;-1.40;99.90;;;;;;5086038;28;20707;-64
2023/12/03 12:27:50;;;;;;;6.37;5.17;;;-1.30;99.90;;;;;;5075605;28;20616;-64
2023/12/03 12:30:19;;;;;;;10.07;8.07;;;-1.40;99.90;;;;;;5065641;28;20700;-64
2023/12/03 12:32:46;;;;;;;7.37;6.17;;;-1.40;99.90;;;;;;5065642;28;20715;-64
2023/12/03 12:35:13;;;;;;;6.10;5.50;;;-1.30;99.90;;;;;;5068199;28;20202;-63
2023/12/03 12:37:42;;;;;;;7.57;5.47;;;-1.30;99.90;;;;;;5085666;28;20724;-63
2023/12/03 12:40:11;;;;;;;5.63;5.13;;;-1.30;99.90;;;;;;5080373;28;20207;-63
2023/12/03 12:42:42;;;;;;;6.97;5.40;;;-1.40;99.90;;;;;;5065492;28;20242;-63